sensor_id;sensor_type;location;lat;lon;timestamp;temperature;humidity
26595;DHT22;14238;49.496;8.154;2023-02-13T00:01:57;1.00;99.90
26595;DHT22;14238;49.496;8.154;2023-02-13T00:04:22;1.00;99.90
26595;DHT22;14238;49.496;8.154;2023-02-13T00:06:48;1.10;99.90
26595;DHT22;14238;49.496;8.154;2023-02-13T00:09:14;1.10;99.90
26595;DHT22;14238;49.496;8.154;2023-02-13T00:11:39;1.00;99.90
26595;DHT22;14238;49.496;8.154;2023-02-13T00:14:05;1.10;99.90
26595;DHT22;14238;49.496;8.154;2023-02-13T00:16:30;1.10;99.90
26595;DHT22;14238;49.496;8.154;2023-02-13T00:18:56;1.20;99.90
26595;DHT22;14238;49.496;8.154;2023-02-13T00:21:21;1.10;99.90
26595;DHT22;14238;49.496;8.154;2023-02-13T00:23:47;1.10;99.90
26595;DHT22;14238;49.496;8.154;2023-02-13T00:26:14;1.10;99.90
26595;DHT22;14238;49.496;8.154;2023-02-13T00:28:40;1.10;99.90
26595;DHT22;14238;49.496;8.154;2023-02-13T00:31:11;1.00;99.90
26595;DHT22;14238;49.496;8.154;2023-02-13T00:33:37;1.00;99.90
26595;DHT22;14238;49.496;8.154;2023-02-13T00:36:14;1.10;99.90
26595;DHT22;14238;49.496;8.154;2023-02-13T00:38:40;1.00;99.90
26595;DHT22;14238;49.496;8.154;2023-02-13T00:41:07;0.90;99.90
26595;DHT22;14238;49.496;8.154;2023-02-13T00:43:34;1.00;99.90
26595;DHT22;14238;49.496;8.154;2023-02-13T00:46:00;1.00;99.90
26595;DHT22;14238;49.496;8.154;2023-02-13T00:48:27;1.00;99.90
26595;DHT22;14238;49.496;8.154;2023-02-13T00:50:53;0.90;99.90
26595;DHT22;14238;49.496;8.154;2023-02-13T00:53:19;0.90;99.90
26595;DHT22;14238;49.496;8.154;2023-02-13T00:55:45;0.90;99.90
26595;DHT22;14238;49.496;8.154;2023-02-13T00:58:11;0.80;99.90
26595;DHT22;14238;49.496;8.154;2023-02-13T01:00:37;0.80;99.90
26595;DHT22;14238;49.496;8.154;2023-02-13T01:03:02;1.00;99.90
26595;DHT22;14238;49.496;8.154;2023-02-13T01:05:28;1.10;99.90
26595;DHT22;14238;49.496;8.154;2023-02-13T01:07:54;1.00;99.90
26595;DHT22;14238;49.496;8.154;2023-02-13T01:10:19;0.90;99.90
26595;DHT22;14238;49.496;8.154;2023-02-13T01:12:45;0.70;99.90
26595;DHT22;14238;49.496;8.154;2023-02-13T01:15:10;0.70;99.90
26595;DHT22;14238;49.496;8.154;2023-02-13T01:17:36;0.70;99.90
26595;DHT22;14238;49.496;8.154;2023-02-13T01:20:05;0.80;99.90
26595;DHT22;14238;49.496;8.154;2023-02-13T01:22:31;0.90;99.90
26595;DHT22;14238;49.496;8.154;2023-02-13T01:24:56;0.80;99.90
26595;DHT22;14238;49.496;8.154;2023-02-13T01:27:22;0.70;99.90
26595;DHT22;14238;49.496;8.154;2023-02-13T01:29:47;0.80;99.90
26595;DHT22;14238;49.496;8.154;2023-02-13T01:32:13;0.70;99.90
26595;DHT22;14238;49.496;8.154;2023-02-13T01:34:39;0.80;99.90
26595;DHT22;14238;49.496;8.154;2023-02-13T01:37:05;1.00;99.90
26595;DHT22;14238;49.496;8.154;2023-02-13T01:39:30;0.80;99.90
26595;DHT22;14238;49.496;8.154;2023-02-13T01:41:56;0.70;99.90
26595;DHT22;14238;49.496;8.154;2023-02-13T01:44:48;0.70;99.90
26595;DHT22;14238;49.496;8.154;2023-02-13T01:50:18;0.60;99.90
26595;DHT22;14238;49.496;8.154;2023-02-13T01:53:10;0.60;99.90
26595;DHT22;14238;49.496;8.154;2023-02-13T01:55:44;0.50;99.90
26595;DHT22;14238;49.496;8.154;2023-02-13T01:58:15;0.60;99.90
26595;DHT22;14238;49.496;8.154;2023-02-13T02:00:42;0.50;99.90
26595;DHT22;14238;49.496;8.154;2023-02-13T02:03:18;0.50;99.90
26595;DHT22;14238;49.496;8.154;2023-02-13T02:05:46;0.60;99.90
26595;DHT22;14238;49.496;8.154;2023-02-13T02:08:13;0.50;99.90
26595;DHT22;14238;49.496;8.154;2023-02-13T02:10:40;0.60;99.90
26595;DHT22;14238;49.496;8.154;2023-02-13T02:13:06;0.60;99.90
26595;DHT22;14238;49.496;8.154;2023-02-13T02:15:34;0.60;99.90
26595;DHT22;14238;49.496;8.154;2023-02-13T02:18:00;0.60;99.90
26595;DHT22;14238;49.496;8.154;2023-02-13T02:31:52;0.40;99.90
26595;DHT22;14238;49.496;8.154;2023-02-13T02:45:34;0.40;99.90
26595;DHT22;14238;49.496;8.154;2023-02-13T02:48:08;0.20;99.90
26595;DHT22;14238;49.496;8.154;2023-02-13T02:54:24;0.20;99.90
26595;DHT22;14238;49.496;8.154;2023-02-13T02:57:21;0.30;99.90
26595;DHT22;14238;49.496;8.154;2023-02-13T02:59:49;0.10;99.90
26595;DHT22;14238;49.496;8.154;2023-02-13T03:02:33;0.20;99.90
26595;DHT22;14238;49.496;8.154;2023-02-13T03:05:21;0.10;99.90
26595;DHT22;14238;49.496;8.154;2023-02-13T03:08:07;0.10;99.90
26595;DHT22;14238;49.496;8.154;2023-02-13T03:10:35;0.20;99.90
26595;DHT22;14238;49.496;8.154;2023-02-13T03:13:38;0.20;99.90
26595;DHT22;14238;49.496;8.154;2023-02-13T03:16:05;0.20;99.90
26595;DHT22;14238;49.496;8.154;2023-02-13T03:18:52;0.20;99.90
26595;DHT22;14238;49.496;8.154;2023-02-13T03:24:56;0.20;99.90
26595;DHT22;14238;49.496;8.154;2023-02-13T03:27:29;0.20;99.90
26595;DHT22;14238;49.496;8.154;2023-02-13T03:30:32;0.20;99.90
26595;DHT22;14238;49.496;8.154;2023-02-13T03:41:51;0.00;99.90
26595;DHT22;14238;49.496;8.154;2023-02-13T03:44:31;0.00;99.90
26595;DHT22;14238;49.496;8.154;2023-02-13T03:46:59;-0.10;99.90
26595;DHT22;14238;49.496;8.154;2023-02-13T03:49:35;-0.10;99.90
26595;DHT22;14238;49.496;8.154;2023-02-13T03:53:09;-0.20;99.90
26595;DHT22;14238;49.496;8.154;2023-02-13T03:55:18;-0.10;99.90
26595;DHT22;14238;49.496;8.154;2023-02-13T03:58:08;0.00;99.90
26595;DHT22;14238;49.496;8.154;2023-02-13T04:00:57;0.00;99.90
26595;DHT22;14238;49.496;8.154;2023-02-13T04:03:27;0.00;99.90
26595;DHT22;14238;49.496;8.154;2023-02-13T04:06:08;-0.10;99.90
26595;DHT22;14238;49.496;8.154;2023-02-13T04:08:34;-0.10;99.90
26595;DHT22;14238;49.496;8.154;2023-02-13T04:11:12;0.00;99.90
26595;DHT22;14238;49.496;8.154;2023-02-13T04:13:55;-0.10;99.90
26595;DHT22;14238;49.496;8.154;2023-02-13T04:16:39;0.00;99.90
26595;DHT22;14238;49.496;8.154;2023-02-13T04:19:06;-0.10;99.90
26595;DHT22;14238;49.496;8.154;2023-02-13T04:21:37;-0.20;99.90
26595;DHT22;14238;49.496;8.154;2023-02-13T04:24:05;-0.10;99.90
26595;DHT22;14238;49.496;8.154;2023-02-13T04:26:36;-0.20;99.90
26595;DHT22;14238;49.496;8.154;2023-02-13T04:29:02;-0.20;99.90
26595;DHT22;14238;49.496;8.154;2023-02-13T04:31:28;-0.10;99.90
26595;DHT22;14238;49.496;8.154;2023-02-13T04:33:53;-0.10;99.90
26595;DHT22;14238;49.496;8.154;2023-02-13T04:36:19;-0.30;99.90
26595;DHT22;14238;49.496;8.154;2023-02-13T04:38:45;-0.30;99.90
26595;DHT22;14238;49.496;8.154;2023-02-13T04:41:11;-0.10;99.90
26595;DHT22;14238;49.496;8.154;2023-02-13T04:43:36;-0.10;99.90
26595;DHT22;14238;49.496;8.154;2023-02-13T04:46:02;-0.20;99.90
26595;DHT22;14238;49.496;8.154;2023-02-13T04:48:28;-0.20;99.90
26595;DHT22;14238;49.496;8.154;2023-02-13T04:50:54;-0.20;99.90
26595;DHT22;14238;49.496;8.154;2023-02-13T04:53:19;-0.40;99.90
26595;DHT22;14238;49.496;8.154;2023-02-13T04:55:45;-0.40;99.90
26595;DHT22;14238;49.496;8.154;2023-02-13T04:58:10;-0.30;99.90
26595;DHT22;14238;49.496;8.154;2023-02-13T05:00:36;-0.30;99.90
26595;DHT22;14238;49.496;8.154;2023-02-13T05:03:10;-0.30;99.90
26595;DHT22;14238;49.496;8.154;2023-02-13T05:05:37;-0.40;99.90
26595;DHT22;14238;49.496;8.154;2023-02-13T05:08:03;-0.40;99.90
26595;DHT22;14238;49.496;8.154;2023-02-13T05:10:28;-0.50;99.90
26595;DHT22;14238;49.496;8.154;2023-02-13T05:12:54;-0.50;99.90
26595;DHT22;14238;49.496;8.154;2023-02-13T05:15:20;-0.50;99.90
26595;DHT22;14238;49.496;8.154;2023-02-13T05:17:46;-0.50;99.90
26595;DHT22;14238;49.496;8.154;2023-02-13T05:20:13;-0.50;99.90
26595;DHT22;14238;49.496;8.154;2023-02-13T05:22:45;-0.50;99.90
26595;DHT22;14238;49.496;8.154;2023-02-13T05:25:29;-0.60;99.90
26595;DHT22;14238;49.496;8.154;2023-02-13T05:27:56;-0.40;99.90
26595;DHT22;14238;49.496;8.154;2023-02-13T05:30:22;-0.40;99.90
26595;DHT22;14238;49.496;8.154;2023-02-13T05:32:48;-0.40;99.90
26595;DHT22;14238;49.496;8.154;2023-02-13T05:35:22;-0.60;99.90
26595;DHT22;14238;49.496;8.154;2023-02-13T05:37:48;-0.60;99.90
26595;DHT22;14238;49.496;8.154;2023-02-13T05:40:14;-0.50;99.90
26595;DHT22;14238;49.496;8.154;2023-02-13T05:42:40;-0.50;99.90
26595;DHT22;14238;49.496;8.154;2023-02-13T05:45:07;-0.40;99.90
26595;DHT22;14238;49.496;8.154;2023-02-13T05:47:33;-0.30;99.90
26595;DHT22;14238;49.496;8.154;2023-02-13T05:49:58;-0.40;99.90
26595;DHT22;14238;49.496;8.154;2023-02-13T05:52:24;-0.50;99.90
26595;DHT22;14238;49.496;8.154;2023-02-13T05:54:49;-0.50;99.90
26595;DHT22;14238;49.496;8.154;2023-02-13T05:57:15;-0.60;99.90
26595;DHT22;14238;49.496;8.154;2023-02-13T05:59:40;-0.60;99.90
26595;DHT22;14238;49.496;8.154;2023-02-13T06:02:06;-0.60;99.90
26595;DHT22;14238;49.496;8.154;2023-02-13T06:04:31;-0.70;99.90
26595;DHT22;14238;49.496;8.154;2023-02-13T06:06:57;-0.60;99.90
26595;DHT22;14238;49.496;8.154;2023-02-13T06:09:22;-0.60;99.90
26595;DHT22;14238;49.496;8.154;2023-02-13T06:11:48;-0.70;99.90
26595;DHT22;14238;49.496;8.154;2023-02-13T06:14:14;-0.80;99.90
26595;DHT22;14238;49.496;8.154;2023-02-13T06:16:40;-0.70;99.90
26595;DHT22;14238;49.496;8.154;2023-02-13T06:19:05;-0.70;99.90
26595;DHT22;14238;49.496;8.154;2023-02-13T06:21:31;-0.60;99.90
26595;DHT22;14238;49.496;8.154;2023-02-13T06:24:02;-0.70;99.90
26595;DHT22;14238;49.496;8.154;2023-02-13T06:26:28;-0.60;99.90
26595;DHT22;14238;49.496;8.154;2023-02-13T06:28:53;-0.60;99.90
26595;DHT22;14238;49.496;8.154;2023-02-13T06:31:19;-0.70;99.90
26595;DHT22;14238;49.496;8.154;2023-02-13T06:33:44;-0.70;99.90
26595;DHT22;14238;49.496;8.154;2023-02-13T06:36:10;-0.80;99.90
26595;DHT22;14238;49.496;8.154;2023-02-13T06:38:35;-0.80;99.90
26595;DHT22;14238;49.496;8.154;2023-02-13T06:41:01;-0.80;99.90
26595;DHT22;14238;49.496;8.154;2023-02-13T06:43:27;-0.80;99.90
26595;DHT22;14238;49.496;8.154;2023-02-13T06:45:52;-0.80;99.90
26595;DHT22;14238;49.496;8.154;2023-02-13T06:48:18;-0.80;99.90
26595;DHT22;14238;49.496;8.154;2023-02-13T06:50:44;-0.80;99.90
26595;DHT22;14238;49.496;8.154;2023-02-13T06:53:10;-0.90;99.90
26595;DHT22;14238;49.496;8.154;2023-02-13T06:55:35;-0.80;99.90
26595;DHT22;14238;49.496;8.154;2023-02-13T06:58:01;-0.80;99.90
26595;DHT22;14238;49.496;8.154;2023-02-13T07:00:26;-0.80;99.90
26595;DHT22;14238;49.496;8.154;2023-02-13T07:02:52;-1.00;99.90
26595;DHT22;14238;49.496;8.154;2023-02-13T07:05:18;-0.90;99.90
26595;DHT22;14238;49.496;8.154;2023-02-13T07:07:43;-0.60;99.90
26595;DHT22;14238;49.496;8.154;2023-02-13T07:10:11;-0.70;99.90
26595;DHT22;14238;49.496;8.154;2023-02-13T07:12:37;-0.60;99.90
26595;DHT22;14238;49.496;8.154;2023-02-13T07:15:04;-0.50;99.90
26595;DHT22;14238;49.496;8.154;2023-02-13T07:17:30;-0.50;99.90
26595;DHT22;14238;49.496;8.154;2023-02-13T07:19:56;-0.60;99.90
26595;DHT22;14238;49.496;8.154;2023-02-13T07:22:21;-0.70;99.90
26595;DHT22;14238;49.496;8.154;2023-02-13T07:24:47;-0.50;99.90
26595;DHT22;14238;49.496;8.154;2023-02-13T07:27:12;-0.20;99.90
26595;DHT22;14238;49.496;8.154;2023-02-13T07:29:38;-0.10;99.90
26595;DHT22;14238;49.496;8.154;2023-02-13T07:32:03;-0.30;99.90
26595;DHT22;14238;49.496;8.154;2023-02-13T07:34:31;-0.50;99.90
26595;DHT22;14238;49.496;8.154;2023-02-13T07:36:57;-0.30;99.90
26595;DHT22;14238;49.496;8.154;2023-02-13T07:39:22;0.00;99.90
26595;DHT22;14238;49.496;8.154;2023-02-13T07:41:48;-0.10;99.90
26595;DHT22;14238;49.496;8.154;2023-02-13T07:44:13;-0.10;99.90
26595;DHT22;14238;49.496;8.154;2023-02-13T07:46:39;-0.20;99.90
26595;DHT22;14238;49.496;8.154;2023-02-13T07:49:04;0.00;99.90
26595;DHT22;14238;49.496;8.154;2023-02-13T07:51:30;0.20;99.90
26595;DHT22;14238;49.496;8.154;2023-02-13T07:53:55;0.30;99.90
26595;DHT22;14238;49.496;8.154;2023-02-13T07:56:21;0.30;99.90
26595;DHT22;14238;49.496;8.154;2023-02-13T07:58:46;0.30;99.90
26595;DHT22;14238;49.496;8.154;2023-02-13T08:01:14;0.20;99.90
26595;DHT22;14238;49.496;8.154;2023-02-13T08:03:40;0.30;99.90
26595;DHT22;14238;49.496;8.154;2023-02-13T08:06:07;0.30;99.90
26595;DHT22;14238;49.496;8.154;2023-02-13T08:08:32;0.40;99.90
26595;DHT22;14238;49.496;8.154;2023-02-13T08:11:04;0.60;99.90
26595;DHT22;14238;49.496;8.154;2023-02-13T08:13:49;0.80;99.90
26595;DHT22;14238;49.496;8.154;2023-02-13T08:16:15;1.00;99.90
26595;DHT22;14238;49.496;8.154;2023-02-13T08:18:40;1.10;99.90
26595;DHT22;14238;49.496;8.154;2023-02-13T08:21:06;1.20;99.90
26595;DHT22;14238;49.496;8.154;2023-02-13T08:23:31;1.30;99.90
26595;DHT22;14238;49.496;8.154;2023-02-13T08:26:01;1.30;99.90
26595;DHT22;14238;49.496;8.154;2023-02-13T08:28:28;1.60;99.90
26595;DHT22;14238;49.496;8.154;2023-02-13T08:30:53;1.80;99.90
26595;DHT22;14238;49.496;8.154;2023-02-13T08:33:19;1.90;99.90
26595;DHT22;14238;49.496;8.154;2023-02-13T08:35:45;1.90;99.90
26595;DHT22;14238;49.496;8.154;2023-02-13T08:38:10;2.10;99.90
26595;DHT22;14238;49.496;8.154;2023-02-13T08:40:36;2.30;99.90
26595;DHT22;14238;49.496;8.154;2023-02-13T08:43:03;2.50;99.90
26595;DHT22;14238;49.496;8.154;2023-02-13T08:45:30;2.60;99.90
26595;DHT22;14238;49.496;8.154;2023-02-13T08:47:57;2.60;99.90
26595;DHT22;14238;49.496;8.154;2023-02-13T08:50:23;2.80;99.90
26595;DHT22;14238;49.496;8.154;2023-02-13T08:52:48;2.80;99.90
26595;DHT22;14238;49.496;8.154;2023-02-13T08:55:14;2.80;99.90
26595;DHT22;14238;49.496;8.154;2023-02-13T08:57:39;2.90;99.90
26595;DHT22;14238;49.496;8.154;2023-02-13T09:00:05;3.00;99.90
26595;DHT22;14238;49.496;8.154;2023-02-13T09:02:31;3.10;99.90
26595;DHT22;14238;49.496;8.154;2023-02-13T09:04:56;3.40;99.90
26595;DHT22;14238;49.496;8.154;2023-02-13T09:07:22;3.40;99.90
26595;DHT22;14238;49.496;8.154;2023-02-13T09:09:47;3.40;99.90
26595;DHT22;14238;49.496;8.154;2023-02-13T09:12:13;3.30;99.90
26595;DHT22;14238;49.496;8.154;2023-02-13T09:14:39;3.60;99.90
26595;DHT22;14238;49.496;8.154;2023-02-13T09:17:04;3.70;99.90
26595;DHT22;14238;49.496;8.154;2023-02-13T09:19:30;3.70;99.90
26595;DHT22;14238;49.496;8.154;2023-02-13T09:21:55;3.60;99.90
26595;DHT22;14238;49.496;8.154;2023-02-13T09:24:21;3.80;99.90
26595;DHT22;14238;49.496;8.154;2023-02-13T09:26:46;3.80;99.90
26595;DHT22;14238;49.496;8.154;2023-02-13T09:29:12;3.90;99.90
26595;DHT22;14238;49.496;8.154;2023-02-13T09:31:37;4.10;99.90
26595;DHT22;14238;49.496;8.154;2023-02-13T09:34:03;4.20;99.90
26595;DHT22;14238;49.496;8.154;2023-02-13T09:36:28;4.20;99.90
26595;DHT22;14238;49.496;8.154;2023-02-13T09:38:55;4.20;99.90
26595;DHT22;14238;49.496;8.154;2023-02-13T09:41:28;4.50;99.90
26595;DHT22;14238;49.496;8.154;2023-02-13T09:44:21;4.60;99.90
26595;DHT22;14238;49.496;8.154;2023-02-13T09:47:52;4.80;99.90
26595;DHT22;14238;49.496;8.154;2023-02-13T09:50:30;5.10;99.90
26595;DHT22;14238;49.496;8.154;2023-02-13T09:52:58;6.30;99.90
26595;DHT22;14238;49.496;8.154;2023-02-13T09:55:48;7.70;99.90
26595;DHT22;14238;49.496;8.154;2023-02-13T09:58:38;8.90;99.90
26595;DHT22;14238;49.496;8.154;2023-02-13T10:01:22;10.10;99.90
26595;DHT22;14238;49.496;8.154;2023-02-13T10:04:07;10.60;99.90
26595;DHT22;14238;49.496;8.154;2023-02-13T10:06:41;11.80;99.90
26595;DHT22;14238;49.496;8.154;2023-02-13T10:09:36;12.60;99.90
26595;DHT22;14238;49.496;8.154;2023-02-13T10:15:01;12.50;99.90
26595;DHT22;14238;49.496;8.154;2023-02-13T10:17:35;12.80;99.90
26595;DHT22;14238;49.496;8.154;2023-02-13T10:20:24;13.20;99.90
26595;DHT22;14238;49.496;8.154;2023-02-13T10:23:08;13.30;99.90
26595;DHT22;14238;49.496;8.154;2023-02-13T10:25:47;13.60;99.90
26595;DHT22;14238;49.496;8.154;2023-02-13T10:28:23;13.40;99.90
26595;DHT22;14238;49.496;8.154;2023-02-13T10:30:55;13.40;99.90
26595;DHT22;14238;49.496;8.154;2023-02-13T10:33:27;13.90;99.90
26595;DHT22;14238;49.496;8.154;2023-02-13T10:36:10;14.00;99.90
26595;DHT22;14238;49.496;8.154;2023-02-13T10:38:42;14.10;99.90
26595;DHT22;14238;49.496;8.154;2023-02-13T10:49:46;14.40;99.90
26595;DHT22;14238;49.496;8.154;2023-02-13T10:52:35;14.20;99.90
26595;DHT22;14238;49.496;8.154;2023-02-13T10:55:30;14.00;99.90
26595;DHT22;14238;49.496;8.154;2023-02-13T11:00:43;13.60;99.90
26595;DHT22;14238;49.496;8.154;2023-02-13T11:03:17;13.70;99.90
26595;DHT22;14238;49.496;8.154;2023-02-13T11:05:43;13.60;99.90
26595;DHT22;14238;49.496;8.154;2023-02-13T11:08:17;13.10;99.90
26595;DHT22;14238;49.496;8.154;2023-02-13T11:10:44;13.20;99.90
26595;DHT22;14238;49.496;8.154;2023-02-13T11:13:21;13.20;99.90
26595;DHT22;14238;49.496;8.154;2023-02-13T11:16:07;13.70;99.90
26595;DHT22;14238;49.496;8.154;2023-02-13T11:18:37;13.50;99.90
26595;DHT22;14238;49.496;8.154;2023-02-13T11:21:19;13.70;99.90
26595;DHT22;14238;49.496;8.154;2023-02-13T11:23:52;13.90;99.90
26595;DHT22;14238;49.496;8.154;2023-02-13T11:26:33;13.30;99.90
26595;DHT22;14238;49.496;8.154;2023-02-13T11:29:03;13.40;99.90
26595;DHT22;14238;49.496;8.154;2023-02-13T11:31:32;14.10;99.90
26595;DHT22;14238;49.496;8.154;2023-02-13T11:36:41;14.60;99.90
26595;DHT22;14238;49.496;8.154;2023-02-13T11:39:18;14.70;99.90
26595;DHT22;14238;49.496;8.154;2023-02-13T11:41:45;15.20;99.90
26595;DHT22;14238;49.496;8.154;2023-02-13T11:44:25;15.40;99.90
26595;DHT22;14238;49.496;8.154;2023-02-13T11:46:53;15.60;99.90
26595;DHT22;14238;49.496;8.154;2023-02-13T11:49:27;15.70;99.90
26595;DHT22;14238;49.496;8.154;2023-02-13T11:51:58;16.30;99.90
26595;DHT22;14238;49.496;8.154;2023-02-13T11:56:54;15.20;99.90
26595;DHT22;14238;49.496;8.154;2023-02-13T11:59:22;15.60;99.90
26595;DHT22;14238;49.496;8.154;2023-02-13T12:04:42;15.40;99.90
26595;DHT22;14238;49.496;8.154;2023-02-13T12:07:12;15.30;99.90
26595;DHT22;14238;49.496;8.154;2023-02-13T12:09:40;16.00;99.10
26595;DHT22;14238;49.496;8.154;2023-02-13T12:12:06;15.70;99.90
26595;DHT22;14238;49.496;8.154;2023-02-13T12:14:42;15.60;99.90
26595;DHT22;14238;49.496;8.154;2023-02-13T12:17:22;16.50;99.90
26595;DHT22;14238;49.496;8.154;2023-02-13T12:19:49;16.60;99.80
26595;DHT22;14238;49.496;8.154;2023-02-13T12:22:21;16.90;99.90
26595;DHT22;14238;49.496;8.154;2023-02-13T12:39:22;18.10;97.30
26595;DHT22;14238;49.496;8.154;2023-02-13T12:47:19;16.10;98.40
26595;DHT22;14238;49.496;8.154;2023-02-13T13:00:14;15.50;99.40
26595;DHT22;14238;49.496;8.154;2023-02-13T13:03:10;16.70;99.20
26595;DHT22;14238;49.496;8.154;2023-02-13T13:11:59;16.40;97.70
26595;DHT22;14238;49.496;8.154;2023-02-13T13:14:41;16.30;98.30
26595;DHT22;14238;49.496;8.154;2023-02-13T13:20:01;16.10;99.10
26595;DHT22;14238;49.496;8.154;2023-02-13T13:22:37;16.80;98.20
26595;DHT22;14238;49.496;8.154;2023-02-13T13:25:24;16.50;97.90
26595;DHT22;14238;49.496;8.154;2023-02-13T13:27:57;16.60;98.90
26595;DHT22;14238;49.496;8.154;2023-02-13T13:30:30;17.50;96.90
26595;DHT22;14238;49.496;8.154;2023-02-13T13:33:12;17.40;97.70
26595;DHT22;14238;49.496;8.154;2023-02-13T13:35:46;17.10;96.90
26595;DHT22;14238;49.496;8.154;2023-02-13T13:38:38;17.30;96.80
26595;DHT22;14238;49.496;8.154;2023-02-13T13:44:36;17.20;96.70
26595;DHT22;14238;49.496;8.154;2023-02-13T13:50:02;17.10;96.60
26595;DHT22;14238;49.496;8.154;2023-02-13T13:52:32;17.50;97.00
26595;DHT22;14238;49.496;8.154;2023-02-13T13:54:59;16.70;96.70
26595;DHT22;14238;49.496;8.154;2023-02-13T14:00:00;16.30;97.50
26595;DHT22;14238;49.496;8.154;2023-02-13T14:07:51;12.80;99.90
26595;DHT22;14238;49.496;8.154;2023-02-13T14:17:59;10.80;99.90
26595;DHT22;14238;49.496;8.154;2023-02-13T14:23:12;10.40;99.90
26595;DHT22;14238;49.496;8.154;2023-02-13T14:25:39;10.40;99.90
26595;DHT22;14238;49.496;8.154;2023-02-13T14:28:05;10.30;99.90
26595;DHT22;14238;49.496;8.154;2023-02-13T14:30:33;10.20;99.90
26595;DHT22;14238;49.496;8.154;2023-02-13T14:33:03;10.20;99.90
26595;DHT22;14238;49.496;8.154;2023-02-13T14:35:32;10.10;99.90
26595;DHT22;14238;49.496;8.154;2023-02-13T14:38:00;9.90;99.90
26595;DHT22;14238;49.496;8.154;2023-02-13T14:43:20;9.90;99.90
26595;DHT22;14238;49.496;8.154;2023-02-13T14:45:56;9.80;99.90
26595;DHT22;14238;49.496;8.154;2023-02-13T14:48:33;9.70;99.90
26595;DHT22;14238;49.496;8.154;2023-02-13T14:51:00;9.80;99.90
26595;DHT22;14238;49.496;8.154;2023-02-13T14:53:37;9.70;99.90
26595;DHT22;14238;49.496;8.154;2023-02-13T14:56:15;9.50;99.90
26595;DHT22;14238;49.496;8.154;2023-02-13T14:58:52;9.50;99.90
26595;DHT22;14238;49.496;8.154;2023-02-13T15:01:38;9.50;99.90
26595;DHT22;14238;49.496;8.154;2023-02-13T15:04:12;9.50;99.90
26595;DHT22;14238;49.496;8.154;2023-02-13T15:06:41;9.40;99.90
26595;DHT22;14238;49.496;8.154;2023-02-13T15:11:49;9.30;99.90
26595;DHT22;14238;49.496;8.154;2023-02-13T15:14:21;9.30;99.90
26595;DHT22;14238;49.496;8.154;2023-02-13T15:17:23;8.90;99.90
26595;DHT22;14238;49.496;8.154;2023-02-13T15:19:52;8.80;99.90
26595;DHT22;14238;49.496;8.154;2023-02-13T15:22:23;8.90;99.90
26595;DHT22;14238;49.496;8.154;2023-02-13T15:24:51;8.90;99.90
26595;DHT22;14238;49.496;8.154;2023-02-13T15:27:24;8.50;99.90
26595;DHT22;14238;49.496;8.154;2023-02-13T15:30:02;8.20;99.90
26595;DHT22;14238;49.496;8.154;2023-02-13T15:32:34;7.80;99.90
26595;DHT22;14238;49.496;8.154;2023-02-13T15:35:30;7.50;99.90
26595;DHT22;14238;49.496;8.154;2023-02-13T15:37:57;7.30;99.90
26595;DHT22;14238;49.496;8.154;2023-02-13T15:40:31;7.20;99.90
26595;DHT22;14238;49.496;8.154;2023-02-13T15:42:58;7.00;99.90
26595;DHT22;14238;49.496;8.154;2023-02-13T15:45:25;6.80;99.90
26595;DHT22;14238;49.496;8.154;2023-02-13T15:47:52;6.60;99.90
26595;DHT22;14238;49.496;8.154;2023-02-13T15:50:31;6.60;99.90
26595;DHT22;14238;49.496;8.154;2023-02-13T15:52:59;6.40;99.90
26595;DHT22;14238;49.496;8.154;2023-02-13T15:55:29;6.30;99.90
26595;DHT22;14238;49.496;8.154;2023-02-13T15:57:57;6.20;99.90
26595;DHT22;14238;49.496;8.154;2023-02-13T16:00:31;6.10;99.90
26595;DHT22;14238;49.496;8.154;2023-02-13T16:03:00;6.10;99.90
26595;DHT22;14238;49.496;8.154;2023-02-13T16:05:27;6.00;99.90
26595;DHT22;14238;49.496;8.154;2023-02-13T16:07:56;5.90;99.90
26595;DHT22;14238;49.496;8.154;2023-02-13T16:10:40;5.70;99.90
26595;DHT22;14238;49.496;8.154;2023-02-13T16:13:06;5.70;99.90
26595;DHT22;14238;49.496;8.154;2023-02-13T16:15:42;5.60;99.90
26595;DHT22;14238;49.496;8.154;2023-02-13T16:18:18;5.50;99.90
26595;DHT22;14238;49.496;8.154;2023-02-13T16:20:44;5.50;99.90
26595;DHT22;14238;49.496;8.154;2023-02-13T16:23:16;5.50;99.90
26595;DHT22;14238;49.496;8.154;2023-02-13T16:25:42;5.30;99.90
26595;DHT22;14238;49.496;8.154;2023-02-13T16:28:22;5.30;99.90
26595;DHT22;14238;49.496;8.154;2023-02-13T16:33:28;5.30;99.90
26595;DHT22;14238;49.496;8.154;2023-02-13T16:35:57;5.10;99.90
26595;DHT22;14238;49.496;8.154;2023-02-13T16:38:27;5.00;99.90
26595;DHT22;14238;49.496;8.154;2023-02-13T16:40:55;4.90;99.90
26595;DHT22;14238;49.496;8.154;2023-02-13T16:43:38;4.90;99.90
26595;DHT22;14238;49.496;8.154;2023-02-13T16:46:29;4.80;99.90
26595;DHT22;14238;49.496;8.154;2023-02-13T16:51:39;4.50;99.90
26595;DHT22;14238;49.496;8.154;2023-02-13T16:54:18;4.40;99.90
26595;DHT22;14238;49.496;8.154;2023-02-13T16:56:56;4.30;99.90
26595;DHT22;14238;49.496;8.154;2023-02-13T17:07:14;4.10;99.90
26595;DHT22;14238;49.496;8.154;2023-02-13T17:09:40;4.00;99.90
26595;DHT22;14238;49.496;8.154;2023-02-13T17:12:12;4.00;99.90
26595;DHT22;14238;49.496;8.154;2023-02-13T17:14:38;3.90;99.90
26595;DHT22;14238;49.496;8.154;2023-02-13T17:17:10;3.80;99.90
26595;DHT22;14238;49.496;8.154;2023-02-13T17:19:36;3.70;99.90
26595;DHT22;14238;49.496;8.154;2023-02-13T17:22:02;3.70;99.90
26595;DHT22;14238;49.496;8.154;2023-02-13T17:24:27;3.70;99.90
26595;DHT22;14238;49.496;8.154;2023-02-13T17:26:53;3.70;99.90
26595;DHT22;14238;49.496;8.154;2023-02-13T17:29:18;3.60;99.90
26595;DHT22;14238;49.496;8.154;2023-02-13T17:31:44;3.50;99.90
26595;DHT22;14238;49.496;8.154;2023-02-13T17:34:10;3.40;99.90
26595;DHT22;14238;49.496;8.154;2023-02-13T17:36:36;3.40;99.90
26595;DHT22;14238;49.496;8.154;2023-02-13T17:39:02;3.40;99.90
26595;DHT22;14238;49.496;8.154;2023-02-13T17:41:27;3.40;99.90
26595;DHT22;14238;49.496;8.154;2023-02-13T17:43:54;3.30;99.90
26595;DHT22;14238;49.496;8.154;2023-02-13T17:46:19;3.20;99.90
26595;DHT22;14238;49.496;8.154;2023-02-13T17:48:45;3.20;99.90
26595;DHT22;14238;49.496;8.154;2023-02-13T17:51:13;3.10;99.90
26595;DHT22;14238;49.496;8.154;2023-02-13T17:53:39;3.10;99.90
26595;DHT22;14238;49.496;8.154;2023-02-13T17:56:05;3.10;99.90
26595;DHT22;14238;49.496;8.154;2023-02-13T17:58:30;3.10;99.90
26595;DHT22;14238;49.496;8.154;2023-02-13T18:00:56;3.10;99.90
26595;DHT22;14238;49.496;8.154;2023-02-13T18:03:21;3.00;99.90
26595;DHT22;14238;49.496;8.154;2023-02-13T18:05:48;3.00;99.90
26595;DHT22;14238;49.496;8.154;2023-02-13T18:08:14;2.90;99.90
26595;DHT22;14238;49.496;8.154;2023-02-13T18:10:39;2.90;99.90
26595;DHT22;14238;49.496;8.154;2023-02-13T18:13:05;2.90;99.90
26595;DHT22;14238;49.496;8.154;2023-02-13T18:15:32;3.00;99.90
26595;DHT22;14238;49.496;8.154;2023-02-13T18:17:58;2.90;99.90
26595;DHT22;14238;49.496;8.154;2023-02-13T18:20:24;2.90;99.90
26595;DHT22;14238;49.496;8.154;2023-02-13T18:22:49;2.90;99.90
26595;DHT22;14238;49.496;8.154;2023-02-13T18:25:16;2.90;99.90
26595;DHT22;14238;49.496;8.154;2023-02-13T18:27:42;2.80;99.90